createdAt,value
2022-08-21T00:02:18.914Z,4.72
2022-08-21T00:06:21.281Z,5.60
2022-08-21T00:10:24.057Z,4.55
2022-08-21T00:14:26.240Z,5.05
2022-08-21T00:18:34.565Z,4.88
2022-08-21T00:22:38.078Z,4.97
2022-08-21T00:26:40.462Z,4.75
2022-08-21T00:30:43.291Z,5.40
2022-08-21T00:34:45.593Z,4.97
2022-08-21T00:38:47.824Z,4.47
2022-08-21T00:42:53.738Z,5.53
2022-08-21T00:46:56.058Z,5.25
2022-08-21T00:51:09.837Z,4.57
2022-08-21T00:55:13.937Z,4.97
2022-08-21T00:59:19.109Z,5.13
2022-08-21T01:03:24.073Z,6.07
2022-08-21T01:07:27.783Z,4.80
2022-08-21T01:11:30.047Z,5.38
2022-08-21T01:15:37.243Z,5.82
2022-08-21T01:19:39.827Z,5.90
2022-08-21T01:23:46.184Z,5.13
2022-08-21T01:27:48.584Z,5.50
2022-08-21T01:31:51.452Z,5.55
2022-08-21T01:35:53.830Z,4.88
2022-08-21T01:39:56.153Z,5.53
2022-08-21T01:43:58.398Z,5.43
2022-08-21T01:48:00.773Z,5.25
2022-08-21T01:52:05.823Z,6.18
2022-08-21T01:56:16.422Z,5.80
2022-08-21T02:00:20.633Z,5.93
2022-08-21T02:04:23.698Z,6.40
2022-08-21T02:08:25.789Z,6.50
2022-08-21T02:12:27.979Z,6.90
2022-08-21T02:16:30.104Z,5.68
2022-08-21T02:20:41.843Z,5.68
2022-08-21T02:24:50.548Z,6.17
2022-08-21T02:28:57.722Z,6.63
2022-08-21T02:33:00.768Z,6.10
2022-08-21T02:37:02.968Z,6.20
2022-08-21T02:41:08.808Z,6.45
2022-08-21T02:45:12.059Z,7.10
2022-08-21T02:49:14.092Z,5.97
2022-08-21T02:53:18.463Z,6.43
2022-08-21T02:57:20.471Z,6.30
2022-08-21T03:01:23.027Z,5.85
2022-08-21T03:05:27.373Z,6.30
2022-08-21T03:09:29.668Z,6.25
2022-08-21T03:13:33.239Z,5.88
2022-08-21T03:17:35.581Z,6.82
2022-08-21T03:21:37.702Z,6.57
2022-08-21T03:25:41.108Z,6.38
2022-08-21T03:29:43.321Z,6.28
2022-08-21T03:33:45.917Z,6.90
2022-08-21T03:37:48.595Z,6.10
2022-08-21T03:41:50.996Z,6.35
2022-08-21T03:45:53.607Z,6.00
2022-08-21T03:49:55.871Z,6.50
2022-08-21T03:53:57.859Z,6.78
2022-08-21T03:58:00.119Z,7.13
2022-08-21T04:02:22.263Z,5.85
2022-08-21T04:06:26.203Z,6.45
2022-08-21T04:10:30.465Z,6.28
2022-08-21T04:14:32.817Z,5.53
2022-08-21T04:18:34.982Z,5.53
2022-08-21T04:22:37.301Z,6.50
2022-08-21T04:26:40.665Z,5.18
2022-08-21T04:30:44.870Z,6.28
2022-08-21T04:34:47.264Z,5.38
2022-08-21T04:38:49.927Z,5.13
2022-08-21T04:42:59.219Z,4.93
2022-08-21T04:47:01.846Z,5.63
2022-08-21T04:51:10.152Z,5.53
2022-08-21T04:55:12.678Z,5.65
2022-08-21T04:59:22.276Z,5.10
2022-08-21T05:03:25.961Z,5.55
2022-08-21T05:07:42.650Z,5.45
2022-08-21T05:11:46.018Z,5.45
2022-08-21T05:15:48.210Z,5.53
2022-08-21T05:19:50.624Z,5.72
2022-08-21T05:23:52.981Z,5.43
2022-08-21T05:27:55.325Z,5.03
2022-08-21T05:32:00.451Z,6.05
2022-08-21T05:36:03.097Z,5.88
2022-08-21T05:40:21.936Z,5.38
2022-08-21T05:44:25.242Z,5.50
2022-08-21T05:48:28.982Z,4.95
2022-08-21T05:52:31.445Z,4.70
2022-08-21T05:56:34.018Z,4.85
2022-08-21T06:00:36.364Z,4.47
2022-08-21T06:04:41.595Z,4.53
2022-08-21T06:08:44.417Z,4.95
2022-08-21T06:12:46.779Z,5.55
2022-08-21T06:16:49.133Z,4.25
2022-08-21T06:20:51.449Z,4.55
2022-08-21T06:24:53.764Z,4.40
2022-08-21T06:28:56.006Z,5.60
2022-08-21T06:32:58.783Z,4.97
2022-08-21T06:37:01.178Z,5.00
2022-08-21T06:41:04.343Z,4.22
2022-08-21T06:45:07.238Z,5.13
2022-08-21T06:49:09.502Z,4.65
2022-08-21T06:53:23.477Z,4.45
2022-08-21T06:57:27.022Z,5.25
2022-08-21T07:01:29.318Z,4.70
2022-08-21T07:05:31.840Z,4.32
2022-08-21T07:09:34.214Z,4.50
2022-08-21T07:13:36.875Z,5.43
2022-08-21T07:17:39.195Z,5.57
2022-08-21T07:21:41.465Z,4.50
2022-08-21T07:25:43.486Z,4.65
2022-08-21T07:29:46.123Z,5.30
2022-08-21T07:33:49.023Z,5.13
2022-08-21T07:37:51.515Z,4.63
2022-08-21T07:41:53.672Z,4.85
2022-08-21T07:45:56.131Z,5.00
2022-08-21T07:49:58.301Z,4.38
2022-08-21T07:54:01.633Z,5.35
2022-08-21T07:58:03.880Z,4.45
2022-08-21T08:02:06.235Z,4.75
2022-08-21T08:06:13.699Z,4.00
2022-08-21T08:10:17.034Z,5.00
2022-08-21T08:14:19.226Z,4.03
2022-08-21T08:18:29.071Z,4.40
2022-08-21T08:22:31.170Z,4.10
2022-08-21T08:26:33.402Z,4.07
2022-08-21T08:30:35.725Z,4.28
2022-08-21T08:34:39.729Z,4.03
2022-08-21T08:38:42.085Z,4.00
2022-08-21T08:42:48.686Z,4.03
2022-08-21T08:46:53.629Z,3.17
2022-08-21T08:51:02.298Z,3.60
2022-08-21T08:55:27.288Z,3.85
2022-08-21T08:59:59.001Z,3.50
2022-08-21T09:04:02.635Z,3.80
2022-08-21T09:08:18.122Z,3.47
2022-08-21T09:12:43.476Z,3.17
2022-08-21T09:16:57.075Z,3.80
2022-08-21T09:21:18.977Z,3.63
2022-08-21T09:25:27.247Z,3.70
2022-08-21T09:29:34.519Z,3.20
2022-08-21T09:33:37.193Z,3.55
2022-08-21T09:37:49.907Z,3.45
2022-08-21T09:42:02.314Z,2.72
2022-08-21T09:46:11.182Z,3.53
2022-08-21T09:50:18.665Z,3.05
2022-08-21T09:54:33.856Z,3.25
2022-08-21T09:58:39.429Z,2.38
2022-08-21T10:02:41.955Z,3.00
2022-08-21T10:06:44.301Z,2.90
2022-08-21T10:10:56.309Z,2.95
2022-08-21T10:15:14.472Z,2.67
2022-08-21T10:19:31.922Z,3.05
2022-08-21T10:23:52.703Z,2.60
2022-08-21T10:28:13.402Z,2.80
2022-08-21T10:32:47.198Z,2.70
2022-08-21T10:37:08.339Z,2.38
2022-08-21T10:41:46.630Z,2.53
2022-08-21T10:46:22.661Z,2.90
2022-08-21T10:50:48.177Z,3.83
2022-08-21T10:54:57.988Z,3.22
2022-08-21T10:59:23.865Z,2.60
2022-08-21T11:03:36.624Z,2.70
2022-08-21T11:07:49.018Z,3.15
2022-08-21T11:11:59.344Z,3.17
2022-08-21T11:16:18.977Z,2.78
2022-08-21T11:20:34.782Z,3.03
2022-08-21T11:24:48.375Z,3.30
2022-08-21T11:29:02.431Z,2.42
2022-08-21T11:33:22.794Z,2.70
2022-08-21T11:37:25.166Z,3.08
2022-08-21T11:41:27.609Z,2.63
2022-08-21T11:45:50.802Z,2.33
2022-08-21T11:49:59.300Z,3.25
2022-08-21T11:54:23.114Z,2.83
2022-08-21T11:58:32.426Z,2.28
2022-08-21T12:02:38.637Z,2.90
2022-08-21T12:06:42.559Z,2.95
2022-08-21T12:11:00.602Z,2.97
2022-08-21T12:15:17.506Z,2.78
2022-08-21T12:19:25.617Z,2.47
2022-08-21T12:23:45.082Z,2.53
2022-08-21T12:27:52.030Z,2.97
2022-08-21T12:32:15.915Z,2.53
2022-08-21T12:36:23.499Z,2.40
2022-08-21T12:40:32.730Z,2.30
2022-08-21T12:44:41.208Z,2.60
2022-08-21T12:48:59.074Z,2.40
2022-08-21T12:53:20.515Z,2.83
2022-08-21T12:57:28.734Z,2.90
2022-08-21T13:01:52.662Z,2.25
2022-08-21T13:05:55.655Z,2.50
2022-08-21T13:10:05.863Z,2.63
2022-08-21T13:14:16.654Z,2.60
2022-08-21T13:18:25.285Z,2.88
2022-08-21T13:22:33.505Z,2.40
2022-08-21T13:26:37.518Z,2.42
2022-08-21T13:30:46.471Z,2.42
2022-08-21T13:34:48.890Z,2.35
2022-08-21T13:38:57.231Z,2.47
2022-08-21T13:43:02.002Z,3.03
2022-08-21T13:47:07.644Z,2.70
2022-08-21T13:51:11.314Z,2.60
2022-08-21T13:55:17.477Z,2.67
2022-08-21T13:59:28.891Z,2.72
2022-08-21T14:03:42.791Z,2.47
2022-08-21T14:07:45.662Z,2.28
2022-08-21T14:11:48.358Z,2.40
2022-08-21T14:15:59.018Z,2.22
2022-08-21T14:20:01.980Z,2.35
2022-08-21T14:24:26.254Z,2.53
2022-08-21T14:28:39.375Z,2.38
2022-08-21T14:32:44.847Z,2.13
2022-08-21T14:36:49.591Z,2.47
2022-08-21T14:40:54.988Z,2.38
2022-08-21T14:45:02.804Z,2.53
2022-08-21T14:49:05.062Z,2.33
2022-08-21T14:53:10.973Z,2.40
2022-08-21T14:57:14.074Z,2.35
2022-08-21T15:01:19.653Z,2.70
2022-08-21T15:05:31.639Z,2.60
2022-08-21T15:09:36.298Z,2.80
2022-08-21T15:13:38.651Z,2.63
2022-08-21T15:17:43.896Z,2.65
2022-08-21T15:21:48.632Z,2.20
2022-08-21T15:25:51.756Z,2.25
2022-08-21T15:29:55.565Z,2.58
2022-08-21T15:33:58.025Z,2.80
2022-08-21T15:38:00.507Z,2.58
2022-08-21T15:42:10.535Z,3.20
2022-08-21T15:46:16.822Z,3.00
2022-08-21T15:50:20.591Z,3.40
2022-08-21T15:54:22.996Z,3.28
2022-08-21T15:58:25.547Z,2.80
2022-08-21T16:02:31.388Z,2.88
2022-08-21T16:06:38.475Z,3.22
2022-08-21T16:10:56.731Z,2.85
2022-08-21T16:15:00.861Z,3.35
2022-08-21T16:19:04.154Z,3.08
2022-08-21T16:23:06.772Z,3.40
2022-08-21T16:27:09.568Z,3.67
2022-08-21T16:31:15.476Z,3.60
2022-08-21T16:35:21.908Z,4.32
2022-08-21T16:39:24.278Z,5.03
2022-08-21T16:43:29.390Z,4.50
2022-08-21T16:47:32.175Z,3.80
2022-08-21T16:51:34.608Z,4.07
2022-08-21T16:55:37.423Z,3.90
2022-08-21T16:59:41.351Z,4.28
2022-08-21T17:03:47.597Z,4.38
2022-08-21T17:07:49.981Z,4.10
2022-08-21T17:11:52.713Z,4.18
2022-08-21T17:15:55.074Z,3.50
2022-08-21T17:19:57.591Z,4.28
2022-08-21T17:24:00.249Z,4.30
2022-08-21T17:28:02.994Z,4.57
2022-08-21T17:32:10.530Z,4.30
2022-08-21T17:36:12.945Z,3.70
2022-08-21T17:40:15.651Z,4.50
2022-08-21T17:44:20.534Z,4.75
2022-08-21T17:48:25.377Z,3.97
2022-08-21T17:52:28.241Z,3.97
2022-08-21T17:56:34.712Z,4.78
2022-08-21T18:00:37.806Z,4.45
2022-08-21T18:04:40.262Z,4.28
2022-08-21T18:08:42.969Z,4.68
2022-08-21T18:12:45.871Z,5.07
2022-08-21T18:16:48.374Z,4.97
2022-08-21T18:20:51.429Z,5.15
2022-08-21T18:24:54.171Z,4.40
2022-08-21T18:29:00.702Z,5.78
2022-08-21T18:33:03.547Z,7.95
2022-08-21T18:37:06.079Z,7.93
2022-08-21T18:41:10.503Z,7.53
2022-08-21T18:45:18.164Z,6.45
2022-08-21T18:49:20.953Z,5.70
2022-08-21T18:53:27.815Z,5.80
2022-08-21T18:57:32.555Z,5.93
2022-08-21T19:01:35.816Z,6.30
2022-08-21T19:05:40.115Z,6.18
2022-08-21T19:09:52.992Z,6.80
2022-08-21T19:14:15.662Z,6.82
2022-08-21T19:22:48.645Z,7.00
2022-08-21T19:26:56.095Z,7.20
2022-08-21T19:31:05.644Z,6.45
2022-08-21T19:35:08.355Z,7.05
2022-08-21T19:39:12.131Z,6.75
2022-08-21T19:43:14.763Z,7.50
2022-08-21T19:47:20.575Z,7.13
2022-08-21T19:51:23.821Z,7.57
2022-08-21T19:55:26.374Z,8.25
2022-08-21T19:59:28.674Z,9.45
2022-08-21T20:03:31.116Z,9.65
2022-08-21T20:07:33.571Z,10.32
2022-08-21T20:11:40.759Z,10.02
2022-08-21T20:15:44.018Z,11.65
2022-08-21T20:19:51.286Z,10.48
2022-08-21T20:27:59.326Z,11.80
2022-08-21T20:32:05.008Z,10.95
2022-08-21T20:36:07.434Z,13.13
2022-08-21T20:40:14.539Z,12.77
2022-08-21T20:44:17.146Z,12.93
2022-08-21T20:48:49.286Z,14.82
2022-08-21T20:52:57.623Z,13.48
2022-08-21T20:57:05.970Z,13.40
2022-08-21T21:01:16.343Z,14.77
2022-08-21T21:05:54.434Z,15.68
2022-08-21T21:09:59.066Z,16.30
2022-08-21T21:14:07.926Z,14.57
2022-08-21T21:18:18.692Z,14.00
2022-08-21T21:22:27.414Z,12.98
2022-08-21T21:26:48.814Z,12.55
2022-08-21T21:30:52.021Z,11.98
2022-08-21T21:35:05.171Z,10.60
2022-08-21T21:39:36.366Z,9.57
2022-08-21T21:44:04.033Z,9.43
2022-08-21T21:48:28.128Z,10.57
2022-08-21T21:52:53.248Z,9.85
2022-08-21T21:57:02.848Z,9.45
2022-08-21T22:01:32.243Z,9.55
2022-08-21T22:06:20.497Z,9.65
2022-08-21T22:10:50.403Z,10.07
2022-08-21T22:14:55.881Z,8.90
2022-08-21T22:19:34.004Z,9.15
2022-08-21T22:23:42.532Z,9.75
2022-08-21T22:32:25.280Z,9.00
2022-08-21T22:36:34.366Z,9.20
2022-08-21T22:45:05.034Z,9.73
2022-08-21T22:49:34.158Z,9.63
2022-08-21T22:53:40.498Z,9.23
2022-08-21T22:57:45.352Z,9.18
2022-08-21T23:01:59.016Z,9.32
2022-08-21T23:06:22.052Z,10.30
2022-08-21T23:10:29.782Z,9.05
2022-08-21T23:14:35.125Z,9.75
2022-08-21T23:19:00.437Z,10.68
2022-08-21T23:23:14.282Z,10.13
2022-08-21T23:27:33.124Z,10.00
2022-08-21T23:31:52.978Z,10.00
2022-08-21T23:36:28.799Z,9.70
2022-08-21T23:40:50.649Z,10.20
2022-08-21T23:45:15.226Z,11.48
2022-08-21T23:49:27.843Z,10.05
2022-08-21T23:53:50.367Z,9.93
2022-08-21T23:58:20.311Z,10.82
